Moby Aki — IBVV — position and weather

sailwx.info

Track history (hours):
 
Tides and Currents Weather Stations Pressure Air Temp Water Temp Dewpoint Dewpoint Depression Visibility Wind Speed Wind Dir Waves Ship Positions

Moby Aki

Last reported at 2015-May-30 21:17 UTC. Time now 2015-May-30 22:43 UTC.
Position N 41°10' E 009°44'.

Length 175 m; draft 6.9 m.

Type: Passenger vessel. MMSI: 247132400.

Date/timePositionNaut miles runAvg speedWind from/ knotsBaromVisibWave heightAir tempDewpointWater temp
2015-May-30 21:17N 41°10' E 009°44'1419.9
2015-May-30 20:33N 40°57' E 009°38'2 0.3
2015-May-30 12:30N 40°58' E 009°40'7 0.3
2015-May-29 12:05N 40°55' E 009°31'0 0.0
2015-May-29 11:32N 40°55' E 009°31'0 0.0
2015-May-29 10:25N 40°55' E 009°31'0 0.0
2015-May-29 09:32N 40°55' E 009°31'0 0.0
2015-May-29 08:32N 40°55' E 009°31'0 0.0
2015-May-29 07:26N 40°55' E 009°31'10512.9
2015-May-28 23:18N 42°38' E 009°58'1519.6
2015-May-28 22:31N 42°54' E 010°02'1919.6
2015-May-28 21:33N 43°12' E 010°07'1919.0
2015-May-28 20:33N 43°31' E 010°13'5 4.5
2015-May-28 19:31N 43°33' E 010°18'0 0.0
2015-May-28 18:31N 43°33' E 010°18'0 0.0
2015-May-28 17:31N 43°33' E 010°18'0 0.0
2015-May-28 16:31N 43°33' E 010°18'0 0.0
2015-May-28 15:31N 43°33' E 010°18'0 0.0
2015-May-28 14:31N 43°33' E 010°18'0 0.0
2015-May-28 13:31N 43°33' E 010°18'0 0.0
2015-May-28 12:33N 43°33' E 010°18'0 0.0
2015-May-28 11:30N 43°33' E 010°18'0 0.0
2015-May-28 10:30N 43°33' E 010°18'0 0.0
2015-May-28 09:30N 43°33' E 010°18'0 0.0
2015-May-28 08:29N 43°33' E 010°18'0 0.0
2015-May-28 07:32N 43°33' E 010°18'0 0.0
2015-May-28 06:29N 43°33' E 010°18'0 0.0
2015-May-28 05:32N 43°33' E 010°18'3 2.8
2015-May-28 04:33N 43°31' E 010°16'2121.4
2015-May-28 03:33N 43°11' E 010°06'2019.9
2015-May-28 02:33N 42°51' E 010°01'30 1.1
2015-May-27 00:08N 42°22' E 009°56'1219.8
2015-May-26 23:33N 42°33' E 009°57'2019.6
2015-May-26 22:33N 42°53' E 010°01'1919.6
2015-May-26 21:34N 43°12' E 010°05'1919.3
2015-May-26 20:33N 43°30' E 010°12'5 4.8
2015-May-26 19:33N 43°33' E 010°18'0 0.0
2015-May-26 18:32N 43°33' E 010°18'0 0.0
2015-May-26 17:32N 43°33' E 010°18'0 0.0
2015-May-26 16:32N 43°33' E 010°18'0 0.0
2015-May-26 15:32N 43°33' E 010°18'0 0.0
2015-May-26 14:32N 43°33' E 010°18'0 0.0
2015-May-26 13:32N 43°33' E 010°18'0 0.0
2015-May-26 12:31N 43°33' E 010°18'0 0.0
2015-May-26 11:31N 43°33' E 010°18'0 0.0
2015-May-26 10:31N 43°33' E 010°18'0 0.0
2015-May-26 09:31N 43°33' E 010°18'0 0.0
2015-May-26 08:31N 43°33' E 010°18'0 0.0
2015-May-26 07:30N 43°33' E 010°18'0 0.0
2015-May-26 06:33N 43°33' E 010°18'0 0.0
2015-May-26 05:33N 43°33' E 010°18'5 4.9
2015-May-26 04:33N 43°30' E 010°13'1918.9
2015-May-26 03:33N 43°11' E 010°07'2219.6
2015-May-26 02:27N 42°50' E 010°00'1719.6
2015-May-26 01:34N 42°33' E 009°56'2119.9
2015-May-26 00:29N 42°12' E 009°53'7718.9
2015-May-25 20:24N 40°55' E 009°35'3 2.9
2015-May-25 19:25N 40°55' E 009°31'0 0.0
2015-May-25 18:28N 40°55' E 009°31'0 0.0
2015-May-25 17:25N 40°55' E 009°31'0 0.0
2015-May-25 16:31N 40°55' E 009°31'0 0.0
2015-May-25 15:31N 40°55' E 009°31'0 0.0
2015-May-25 14:26N 40°55' E 009°31'0 0.0
2015-May-25 13:26N 40°55' E 009°31'0 0.0
2015-May-25 12:26N 40°55' E 009°31'0 0.0
2015-May-25 11:29N 40°55' E 009°31'0 0.0
2015-May-25 10:29N 40°55' E 009°31'0 0.0
2015-May-25 09:29N 40°55' E 009°31'0 0.0
2015-May-25 08:25N 40°55' E 009°31'0 0.0
2015-May-25 07:25N 40°55' E 009°31'0 0.0
2015-May-25 06:19N 40°55' E 009°31'11516.5
2015-May-24 23:20N 42°48' E 009°60'1722.0
2015-May-24 22:33N 43°05' E 010°05'2222.2
2015-May-24 21:33N 43°27' E 010°12'8 7.7
2015-May-24 20:33N 43°33' E 010°18'0 0.0
2015-May-24 19:33N 43°33' E 010°18'4 4.5
2015-May-24 18:34N 43°30' E 010°14'2626.3
2015-May-24 17:34N 43°04' E 010°05'1 0.0
2015-May-23 22:33N 43°04' E 010°04'2222.3
2015-May-23 21:33N 43°26' E 010°11'9 8.2
2015-May-23 20:31N 43°33' E 010°18'0 0.0
2015-May-23 19:31N 43°33' E 010°18'6 6.1
2015-May-23 18:34N 43°28' E 010°13'2626.4
2015-May-23 17:34N 43°03' E 010°05'4 0.2
2015-May-22 22:33N 43°07' E 010°05'2222.5
2015-May-22 21:33N 43°29' E 010°12'6 5.8
2015-May-22 20:29N 43°33' E 010°18'0 0.0
2015-May-22 19:32N 43°33' E 010°18'9 9.7
2015-May-22 18:34N 43°25' E 010°12'29 1.4
2015-May-21 22:18N 42°56' E 010°02'1519.6
2015-May-21 21:33N 43°11' E 010°06'1919.4
2015-May-21 20:33N 43°30' E 010°13'5 5.0
2015-May-21 19:31N 43°33' E 010°18'0 0.0
2015-May-21 18:33N 43°33' E 010°18'0 0.0
2015-May-21 17:30N 43°33' E 010°18'0 0.0
2015-May-21 16:33N 43°33' E 010°18'0 0.0
2015-May-21 15:33N 43°33' E 010°18'0 0.0
2015-May-21 14:33N 43°33' E 010°18'0 0.0
2015-May-21 13:32N 43°33' E 010°18'0 0.0
2015-May-21 12:32N 43°33' E 010°18'0 0.0
2015-May-21 11:32N 43°33' E 010°18'0 0.0
2015-May-21 10:26N 43°33' E 010°18'0 0.0
2015-May-21 09:32N 43°33' E 010°18'0 0.0
2015-May-21 08:32N 43°33' E 010°18'0 0.0
2015-May-21 07:32N 43°33' E 010°18'0 0.0
2015-May-21 06:33N 43°33' E 010°18'0 0.0
2015-May-21 05:33N 43°33' E 010°18'4 3.6
2015-May-21 04:33N 43°31' E 010°14'1818.0
2015-May-21 03:34N 43°13' E 010°08'  
Track history (hours):
 
Tides and Currents Weather Stations Pressure Air Temp Water Temp Dewpoint Dewpoint Depression Visibility Wind Speed Wind Dir Waves Ship Positions

Moby Aki

Last reported at 2015-May-30 21:17 UTC. Time now 2015-May-30 22:43 UTC.
Position N 41°10' E 009°44'.

Length 175 m; draft 6.9 m.

Type: Passenger vessel. MMSI: 247132400.

Date/timePositionNaut miles runAvg speedWind from/ knotsBaromVisibWave heightAir tempDewpointWater temp
2015-May-30 21:17N 41°10' E 009°44'1419.9
2015-May-30 20:33N 40°57' E 009°38'2 0.3
2015-May-30 12:30N 40°58' E 009°40'7 0.3
2015-May-29 12:05N 40°55' E 009°31'0 0.0
2015-May-29 11:32N 40°55' E 009°31'0 0.0
2015-May-29 10:25N 40°55' E 009°31'0 0.0
2015-May-29 09:32N 40°55' E 009°31'0 0.0
2015-May-29 08:32N 40°55' E 009°31'0 0.0
2015-May-29 07:26N 40°55' E 009°31'10512.9
2015-May-28 23:18N 42°38' E 009°58'1519.6
2015-May-28 22:31N 42°54' E 010°02'1919.6
2015-May-28 21:33N 43°12' E 010°07'1919.0
2015-May-28 20:33N 43°31' E 010°13'5 4.5
2015-May-28 19:31N 43°33' E 010°18'0 0.0
2015-May-28 18:31N 43°33' E 010°18'0 0.0
2015-May-28 17:31N 43°33' E 010°18'0 0.0
2015-May-28 16:31N 43°33' E 010°18'0 0.0
2015-May-28 15:31N 43°33' E 010°18'0 0.0
2015-May-28 14:31N 43°33' E 010°18'0 0.0
2015-May-28 13:31N 43°33' E 010°18'0 0.0
2015-May-28 12:33N 43°33' E 010°18'0 0.0
2015-May-28 11:30N 43°33' E 010°18'0 0.0
2015-May-28 10:30N 43°33' E 010°18'0 0.0
2015-May-28 09:30N 43°33' E 010°18'0 0.0
2015-May-28 08:29N 43°33' E 010°18'0 0.0
2015-May-28 07:32N 43°33' E 010°18'0 0.0
2015-May-28 06:29N 43°33' E 010°18'0 0.0
2015-May-28 05:32N 43°33' E 010°18'3 2.8
2015-May-28 04:33N 43°31' E 010°16'2121.4
2015-May-28 03:33N 43°11' E 010°06'2019.9
2015-May-28 02:33N 42°51' E 010°01'30 1.1
2015-May-27 00:08N 42°22' E 009°56'1219.8
2015-May-26 23:33N 42°33' E 009°57'2019.6
2015-May-26 22:33N 42°53' E 010°01'1919.6
2015-May-26 21:34N 43°12' E 010°05'1919.3
2015-May-26 20:33N 43°30' E 010°12'5 4.8
2015-May-26 19:33N 43°33' E 010°18'0 0.0
2015-May-26 18:32N 43°33' E 010°18'0 0.0
2015-May-26 17:32N 43°33' E 010°18'0 0.0
2015-May-26 16:32N 43°33' E 010°18'0 0.0
2015-May-26 15:32N 43°33' E 010°18'0 0.0
2015-May-26 14:32N 43°33' E 010°18'0 0.0
2015-May-26 13:32N 43°33' E 010°18'0 0.0
2015-May-26 12:31N 43°33' E 010°18'0 0.0
2015-May-26 11:31N 43°33' E 010°18'0 0.0
2015-May-26 10:31N 43°33' E 010°18'0 0.0
2015-May-26 09:31N 43°33' E 010°18'0 0.0
2015-May-26 08:31N 43°33' E 010°18'0 0.0
2015-May-26 07:30N 43°33' E 010°18'0 0.0
2015-May-26 06:33N 43°33' E 010°18'0 0.0
2015-May-26 05:33N 43°33' E 010°18'5 4.9
2015-May-26 04:33N 43°30' E 010°13'1918.9
2015-May-26 03:33N 43°11' E 010°07'2219.6
2015-May-26 02:27N 42°50' E 010°00'1719.6
2015-May-26 01:34N 42°33' E 009°56'2119.9
2015-May-26 00:29N 42°12' E 009°53'7718.9
2015-May-25 20:24N 40°55' E 009°35'3 2.9
2015-May-25 19:25N 40°55' E 009°31'0 0.0
2015-May-25 18:28N 40°55' E 009°31'0 0.0
2015-May-25 17:25N 40°55' E 009°31'0 0.0
2015-May-25 16:31N 40°55' E 009°31'0 0.0
2015-May-25 15:31N 40°55' E 009°31'0 0.0
2015-May-25 14:26N 40°55' E 009°31'0 0.0
2015-May-25 13:26N 40°55' E 009°31'0 0.0
2015-May-25 12:26N 40°55' E 009°31'0 0.0
2015-May-25 11:29N 40°55' E 009°31'0 0.0
2015-May-25 10:29N 40°55' E 009°31'0 0.0
2015-May-25 09:29N 40°55' E 009°31'0 0.0
2015-May-25 08:25N 40°55' E 009°31'0 0.0
2015-May-25 07:25N 40°55' E 009°31'0 0.0
2015-May-25 06:19N 40°55' E 009°31'11516.5
2015-May-24 23:20N 42°48' E 009°60'1722.0
2015-May-24 22:33N 43°05' E 010°05'2222.2
2015-May-24 21:33N 43°27' E 010°12'8 7.7
2015-May-24 20:33N 43°33' E 010°18'0 0.0
2015-May-24 19:33N 43°33' E 010°18'4 4.5
2015-May-24 18:34N 43°30' E 010°14'2626.3
2015-May-24 17:34N 43°04' E 010°05'1 0.0
2015-May-23 22:33N 43°04' E 010°04'2222.3
2015-May-23 21:33N 43°26' E 010°11'9 8.2
2015-May-23 20:31N 43°33' E 010°18'0 0.0
2015-May-23 19:31N 43°33' E 010°18'6 6.1
2015-May-23 18:34N 43°28' E 010°13'2626.4
2015-May-23 17:34N 43°03' E 010°05'4 0.2
2015-May-22 22:33N 43°07' E 010°05'2222.5
2015-May-22 21:33N 43°29' E 010°12'6 5.8
2015-May-22 20:29N 43°33' E 010°18'0 0.0
2015-May-22 19:32N 43°33' E 010°18'9 9.7
2015-May-22 18:34N 43°25' E 010°12'29 1.4
2015-May-21 22:18N 42°56' E 010°02'1519.6
2015-May-21 21:33N 43°11' E 010°06'1919.4
2015-May-21 20:33N 43°30' E 010°13'5 5.0
2015-May-21 19:31N 43°33' E 010°18'0 0.0
2015-May-21 18:33N 43°33' E 010°18'0 0.0
2015-May-21 17:30N 43°33' E 010°18'0 0.0
2015-May-21 16:33N 43°33' E 010°18'0 0.0
2015-May-21 15:33N 43°33' E 010°18'0 0.0
2015-May-21 14:33N 43°33' E 010°18'0 0.0
2015-May-21 13:32N 43°33' E 010°18'0 0.0
2015-May-21 12:32N 43°33' E 010°18'0 0.0
2015-May-21 11:32N 43°33' E 010°18'0 0.0
2015-May-21 10:26N 43°33' E 010°18'0 0.0
2015-May-21 09:32N 43°33' E 010°18'0 0.0
2015-May-21 08:32N 43°33' E 010°18'0 0.0
2015-May-21 07:32N 43°33' E 010°18'0 0.0
2015-May-21 06:33N 43°33' E 010°18'0 0.0
2015-May-21 05:33N 43°33' E 010°18'4 3.6
2015-May-21 04:33N 43°31' E 010°14'1818.0
2015-May-21 03:34N 43°13' E 010°08'  

Dump ship's entire track history